Time;durP1;ratioP1;P1;durP2;ratioP2;P2;SDS_P1;SDS_P2;PMS_P1;PMS_P2;Temp;Humidity;BMP_temperature;BMP_pressure;BME280_temperature;BME280_humidity;BME280_pressure;Samples;Min_cycle;Max_cycle;Signal;HPM_P1;HPM_P2
2024/01/16 05:55:43;;;;;;;23.60;14.40;;;;;;;-0.67;100.00;98335.23;109914;1250;22609;-49
2024/01/16 05:58:11;;;;;;;24.40;14.30;;;;;;;-0.67;100.00;98333.02;112849;1241;22333;-45
2024/01/16 06:00:41;;;;;;;22.50;13.80;;;;;;;-0.66;100.00;98331.99;111348;1245;22507;-44
2024/01/16 06:03:08;;;;;;;22.30;14.10;;;;;;;-0.66;100.00;98339.88;111000;1248;25556;-44
2024/01/16 06:05:35;;;;;;;22.20;14.30;;;;;;;-0.65;100.00;98345.36;111980;1242;22290;-51
2024/01/16 06:08:02;;;;;;;23.10;14.70;;;;;;;-0.65;100.00;98340.73;111317;1247;22412;-44
2024/01/16 06:10:29;;;;;;;22.30;14.20;;;;;;;-0.65;100.00;98348.27;112843;1239;22387;-46
2024/01/16 06:12:56;;;;;;;26.00;15.80;;;;;;;-0.63;100.00;98350.89;112869;1241;22348;-49
2024/01/16 06:15:23;;;;;;;25.60;14.30;;;;;;;-0.61;100.00;98334.13;112049;1250;22428;-49
2024/01/16 06:17:50;;;;;;;23.60;14.90;;;;;;;-0.58;100.00;98329.54;112828;1238;22380;-48
2024/01/16 06:20:18;;;;;;;23.60;14.60;;;;;;;-0.55;100.00;98331.63;112327;1247;24282;-49
2024/01/16 06:22:48;;;;;;;25.80;14.90;;;;;;;-0.51;100.00;98343.49;111886;1250;22570;-45
2024/01/16 06:25:16;;;;;;;25.30;15.20;;;;;;;-0.47;100.00;98340.30;112742;1250;22418;-44
2024/01/16 06:27:51;;;;;;;23.90;15.90;;;;;;;-0.44;100.00;98344.27;112686;1250;23231;-45
2024/01/16 06:30:19;;;;;;;26.90;15.80;;;;;;;-0.40;100.00;98357.16;112326;1250;22838;-49
2024/01/16 06:32:49;;;;;;;24.50;14.60;;;;;;;-0.38;100.00;98360.45;112293;1245;23414;-49
2024/01/16 06:35:18;;;;;;;23.60;14.50;;;;;;;-0.36;100.00;98358.58;112540;1250;22380;-49
2024/01/16 06:37:46;;;;;;;21.20;13.20;;;;;;;-0.35;100.00;98357.40;111781;1250;22335;-49
2024/01/16 06:40:13;;;;;;;23.40;14.50;;;;;;;-0.35;100.00;98366.15;112342;1250;23112;-49
2024/01/16 06:42:46;;;;;;;22.50;14.00;;;;;;;-0.33;100.00;98371.14;112217;1250;23206;-51
2024/01/16 06:45:14;;;;;;;21.40;13.50;;;;;;;-0.33;100.00;98379.71;112120;1250;22622;-53
2024/01/16 06:47:45;;;;;;;24.30;13.70;;;;;;;-0.32;100.00;98389.14;111693;1250;23187;-55
2024/01/16 06:50:16;;;;;;;25.20;15.60;;;;;;;-0.28;100.00;98393.31;111621;1250;23012;-50
2024/01/16 06:52:45;;;;;;;23.00;15.20;;;;;;;-0.23;100.00;98401.07;112011;1250;22988;-51
2024/01/16 06:55:12;;;;;;;26.70;16.20;;;;;;;-0.19;100.00;98406.78;112118;1245;22752;-44
2024/01/16 06:57:39;;;;;;;23.20;14.80;;;;;;;-0.16;100.00;98404.77;112610;1247;22235;-50
2024/01/16 07:00:07;;;;;;;21.30;13.20;;;;;;;-0.14;100.00;98400.16;112603;1247;22444;-52
2024/01/16 07:02:35;;;;;;;21.70;14.20;;;;;;;-0.11;100.00;98410.15;112232;1244;22500;-55
2024/01/16 07:05:03;;;;;;;22.20;14.00;;;;;;;-0.07;100.00;98414.46;112261;1250;22516;-47
2024/01/16 07:07:30;;;;;;;19.20;12.70;;;;;;;-0.03;100.00;98411.79;112241;1250;22693;-56
2024/01/16 07:10:00;;;;;;;18.30;11.60;;;;;;;0.05;100.00;98413.77;111528;1247;22528;-45
2024/01/16 07:12:32;;;;;;;17.90;11.60;;;;;;;0.13;100.00;98420.38;111830;1250;22545;-55
2024/01/16 07:14:59;;;;;;;17.70;10.80;;;;;;;0.19;100.00;98418.38;111739;1250;22355;-45
2024/01/16 07:17:39;;;;;;;20.90;12.50;;;;;;;0.25;100.00;98416.91;111153;1250;23385;-53
2024/01/16 07:20:08;;;;;;;21.40;12.50;;;;;;;0.28;100.00;98408.02;112189;1245;22258;-52
2024/01/16 07:22:37;;;;;;;18.50;12.70;;;;;;;0.28;100.00;98409.90;111870;1248;25308;-46
2024/01/16 07:25:06;;;;;;;19.50;12.60;;;;;;;0.28;100.00;98407.66;112117;1250;22293;-51
2024/01/16 07:27:34;;;;;;;18.80;12.00;;;;;;;0.28;100.00;98414.88;112101;1250;22381;-51
2024/01/16 07:30:04;;;;;;;18.50;11.50;;;;;;;0.29;100.00;98415.59;112068;1239;343607;-45
2024/01/16 07:32:32;;;;;;;18.40;12.10;;;;;;;0.29;100.00;98419.20;112472;1243;22256;-51
2024/01/16 07:34:59;;;;;;;17.10;10.50;;;;;;;0.29;100.00;98425.88;112521;1248;22240;-45
2024/01/16 07:37:26;;;;;;;13.60;9.70;;;;;;;0.26;100.00;98426.86;112596;1241;23225;-45
2024/01/16 07:39:53;;;;;;;16.10;10.40;;;;;;;0.25;100.00;98430.46;112616;1247;22421;-46
2024/01/16 07:42:26;;;;;;;14.40;8.90;;;;;;;0.29;100.00;98432.71;112575;1241;22292;-47
2024/01/16 07:44:52;;;;;;;12.60;8.10;;;;;;;0.29;100.00;98430.50;112654;1242;22285;-45
2024/01/16 07:47:19;;;;;;;15.90;9.60;;;;;;;0.32;100.00;98437.39;112696;1241;22473;-47
2024/01/16 07:49:47;;;;;;;14.50;8.70;;;;;;;0.38;100.00;98440.03;112690;1241;22919;-47
2024/01/16 07:52:13;;;;;;;14.40;8.50;;;;;;;0.44;100.00;98428.78;112692;1247;23163;-45
2024/01/16 07:54:40;;;;;;;11.90;8.50;;;;;;;0.51;100.00;98428.16;112815;1241;23001;-45
2024/01/16 07:57:07;;;;;;;15.20;7.60;;;;;;;0.56;100.00;98432.66;112366;1240;22435;-52
2024/01/16 07:59:33;;;;;;;13.70;7.80;;;;;;;0.58;100.00;98429.61;112628;1236;22429;-45
2024/01/16 08:02:00;;;;;;;12.60;8.50;;;;;;;0.61;100.00;98428.95;112764;1241;22449;-51
2024/01/16 08:04:27;;;;;;;10.50;8.10;;;;;;;0.61;100.00;98431.18;112792;1240;23336;-53
2024/01/16 08:06:54;;;;;;;13.20;7.80;;;;;;;0.61;100.00;98433.76;112730;1241;23319;-52
2024/01/16 08:09:21;;;;;;;11.20;7.10;;;;;;;0.65;100.00;98436.02;111950;1250;25323;-48
2024/01/16 08:11:48;;;;;;;11.90;7.60;;;;;;;0.72;100.00;98442.45;112555;1247;22351;-45
2024/01/16 08:14:15;;;;;;;14.50;8.10;;;;;;;0.75;100.00;98442.83;112375;1249;22844;-46
2024/01/16 08:16:42;;;;;;;13.20;7.80;;;;;;;0.79;100.00;98443.55;111988;1249;23156;-46
2024/01/16 08:19:09;;;;;;;15.10;9.50;;;;;;;0.84;100.00;98450.80;112454;1249;22333;-52
2024/01/16 08:21:37;;;;;;;16.90;10.20;;;;;;;0.90;100.00;98453.77;111899;1250;22729;-51
